Аэропорт: Львов имени Даниила Галицкого. Львов

ICAO: UKLL

METAR:
2019/05/26 14:00
UKLL 261400Z 29003MPS 250V310 9999 SCT032CB 21/13 Q1014 R31/CLRD// TEMPO -TSRAGR BKN020CB
METAR:
2019/05/26 12:09
TAF UKLL 261105Z 2612/2712 26004MPS 9999 BKN025 SCT030CB 
      TEMPO 2612/2618 VRB05G12MPS 2100 -TSRAGR SCT004 BKN007 BKN020CB 
      BECMG 2618/2620 VRB01MPS 
      TEMPO 2620/2706 2100 BR SCT004 BKN007 
      BECMG 2706/2708 18004MPS